createdAt,value
2023-01-02T00:01:56.035Z,99524.16
2023-01-02T00:05:13.219Z,99511.87
2023-01-02T00:08:29.705Z,99503.27
2023-01-02T00:11:46.101Z,99496.91
2023-01-02T00:15:03.880Z,99484.92
2023-01-02T00:18:20.381Z,99487.28
2023-01-02T00:21:38.936Z,99484.84
2023-01-02T00:24:55.132Z,99486.08
2023-01-02T00:28:12.328Z,99488.20
2023-01-02T00:31:29.321Z,99494.22
2023-01-02T00:34:46.399Z,99498.25
2023-01-02T00:38:04.436Z,99492.23
2023-01-02T00:41:24.540Z,99499.03
2023-01-02T00:44:40.999Z,99506.92
2023-01-02T00:47:57.374Z,99502.55
2023-01-02T00:51:15.510Z,99495.16
2023-01-02T00:54:32.079Z,99505.41
2023-01-02T00:57:49.831Z,99503.36
2023-01-02T01:01:07.664Z,99491.05
2023-01-02T01:04:24.082Z,99490.50
2023-01-02T01:07:40.640Z,99486.25
2023-01-02T01:10:57.494Z,99481.13
2023-01-02T01:14:13.994Z,99484.02
2023-01-02T01:17:30.830Z,99486.25
2023-01-02T01:20:48.923Z,99480.99
2023-01-02T01:24:05.756Z,99484.25
2023-01-02T01:27:22.241Z,99486.70
2023-01-02T01:30:38.886Z,99481.75
2023-01-02T01:33:58.453Z,99478.30
2023-01-02T01:37:15.842Z,99468.66
2023-01-02T01:40:32.239Z,99473.64
2023-01-02T01:43:52.454Z,99479.08
2023-01-02T01:47:09.862Z,99482.14
2023-01-02T01:50:30.634Z,99474.73
2023-01-02T01:53:48.963Z,99468.55
2023-01-02T01:57:09.583Z,99467.70
2023-01-02T02:00:27.390Z,99470.23
2023-01-02T02:03:46.392Z,99460.97
2023-01-02T02:07:03.829Z,99458.94
2023-01-02T02:10:21.401Z,99456.30
2023-01-02T02:13:40.921Z,99453.55
2023-01-02T02:17:02.921Z,99466.55
2023-01-02T02:20:37.927Z,99455.97
2023-01-02T02:24:19.153Z,99460.00
2023-01-02T02:27:59.808Z,99457.63
2023-01-02T02:31:20.883Z,99458.23
2023-01-02T02:34:41.652Z,99458.00
2023-01-02T02:38:02.786Z,99457.41
2023-01-02T02:41:26.830Z,99461.93
2023-01-02T02:44:50.035Z,99460.98
2023-01-02T02:48:11.461Z,99447.27
2023-01-02T02:51:33.364Z,99454.67
2023-01-02T02:54:54.262Z,99454.88
2023-01-02T02:58:11.008Z,99437.25
2023-01-02T03:01:33.726Z,99437.48
2023-01-02T03:04:51.622Z,99435.45
2023-01-02T03:08:14.112Z,99438.42
2023-01-02T03:11:35.050Z,99439.63
2023-01-02T03:14:56.715Z,99433.91
2023-01-02T03:18:22.833Z,99437.34
2023-01-02T03:21:44.927Z,99436.39
2023-01-02T03:25:03.710Z,99429.86
2023-01-02T03:28:27.365Z,99433.64
2023-01-02T03:31:47.538Z,99438.66
2023-01-02T03:35:05.959Z,99439.63
2023-01-02T03:38:26.817Z,99432.70
2023-01-02T03:41:48.882Z,99428.76
2023-01-02T03:45:10.430Z,99436.05
2023-01-02T03:48:33.027Z,99441.30
2023-01-02T03:51:49.407Z,99428.78
2023-01-02T03:55:07.176Z,99421.00
2023-01-02T03:58:28.507Z,99416.14
2023-01-02T04:01:52.539Z,99408.48
2023-01-02T04:05:13.261Z,99414.05
2023-01-02T04:08:34.685Z,99417.67
2023-01-02T04:11:56.601Z,99417.77
2023-01-02T04:15:17.936Z,99421.97
2023-01-02T04:18:44.589Z,99422.43
2023-01-02T04:22:01.957Z,99410.16
2023-01-02T04:25:23.364Z,99414.91
2023-01-02T04:28:43.487Z,99412.41
2023-01-02T04:32:04.502Z,99399.87
2023-01-02T04:35:26.345Z,99396.86
2023-01-02T04:38:42.963Z,99395.91
2023-01-02T04:41:59.347Z,99393.20
2023-01-02T04:45:18.894Z,99404.18
2023-01-02T04:48:35.283Z,99395.02
2023-01-02T04:51:51.580Z,99391.01
2023-01-02T04:55:09.180Z,99386.16
2023-01-02T04:58:27.701Z,99384.17
2023-01-02T05:01:44.164Z,99383.73
2023-01-02T05:05:01.708Z,99384.80
2023-01-02T05:08:18.880Z,99381.99
2023-01-02T05:11:35.460Z,99385.68
2023-01-02T05:14:51.707Z,99379.92
2023-01-02T05:18:08.200Z,99382.42
2023-01-02T05:21:39.034Z,99371.49
2023-01-02T05:24:55.538Z,99372.32
2023-01-02T05:28:12.568Z,99370.64
2023-01-02T05:31:29.458Z,99364.80
2023-01-02T05:34:45.929Z,99363.25
2023-01-02T05:38:03.523Z,99363.09
2023-01-02T05:41:20.466Z,99357.69
2023-01-02T05:44:36.961Z,99366.04
2023-01-02T05:47:54.428Z,99363.61
2023-01-02T05:51:14.656Z,99353.16
2023-01-02T05:54:31.276Z,99355.20
2023-01-02T05:57:47.650Z,99349.28
2023-01-02T06:01:06.162Z,99345.72
2023-01-02T06:04:36.219Z,99350.11
2023-01-02T06:07:52.549Z,99346.19
2023-01-02T06:11:09.849Z,99337.73
2023-01-02T06:14:26.670Z,99342.62
2023-01-02T06:17:43.743Z,99343.56
2023-01-02T06:21:02.855Z,99330.59
2023-01-02T06:24:20.446Z,99332.02
2023-01-02T06:27:39.237Z,99348.47
2023-01-02T06:30:55.667Z,99354.19
2023-01-02T06:34:12.671Z,99352.34
2023-01-02T06:37:29.073Z,99354.11
2023-01-02T06:40:45.835Z,99367.20
2023-01-02T06:44:02.590Z,99362.67
2023-01-02T06:47:19.031Z,99360.88
2023-01-02T06:50:35.457Z,99361.60
2023-01-02T06:53:53.684Z,99373.96
2023-01-02T06:57:10.452Z,99376.83
2023-01-02T07:00:28.167Z,99376.95
2023-01-02T07:03:45.424Z,99380.02
2023-01-02T07:07:02.083Z,99388.08
2023-01-02T07:10:19.131Z,99395.48
2023-01-02T07:13:35.639Z,99392.86
2023-01-02T07:16:52.170Z,99394.05
2023-01-02T07:20:08.752Z,99400.91
2023-01-02T07:23:25.747Z,99397.11
2023-01-02T07:26:42.292Z,99390.28
2023-01-02T07:29:59.157Z,99396.61
2023-01-02T07:33:15.587Z,99389.91
2023-01-02T07:36:32.555Z,99382.06
2023-01-02T07:39:48.941Z,99390.88
2023-01-02T07:43:05.353Z,99391.48
2023-01-02T07:46:23.347Z,99380.18
2023-01-02T07:49:37.791Z,99376.23
2023-01-02T07:52:53.928Z,99373.13
2023-01-02T07:56:11.708Z,99378.14
2023-01-02T07:59:28.101Z,99374.55
2023-01-02T08:02:47.154Z,99376.19
2023-01-02T08:06:09.318Z,99378.52
2023-01-02T08:09:25.652Z,99378.48
2023-01-02T08:12:41.966Z,99373.68
2023-01-02T08:15:58.187Z,99371.91
2023-01-02T08:19:17.316Z,99374.78
2023-01-02T08:22:36.692Z,99378.91
2023-01-02T08:25:57.444Z,99383.13
2023-01-02T08:29:12.243Z,99380.39
2023-01-02T08:32:29.233Z,99376.29
2023-01-02T08:35:45.965Z,99380.20
2023-01-02T08:39:02.395Z,99385.07
2023-01-02T08:42:21.891Z,99380.63
2023-01-02T08:45:38.376Z,99387.70
2023-01-02T08:48:54.638Z,99395.38
2023-01-02T08:52:14.341Z,99390.41
2023-01-02T08:55:28.380Z,99379.20
2023-01-02T08:58:47.343Z,99379.31
2023-01-02T09:02:08.807Z,99377.50
2023-01-02T09:05:27.097Z,99374.70
2023-01-02T09:08:43.836Z,99373.02
2023-01-02T09:12:02.179Z,99373.02
2023-01-02T09:15:23.463Z,99357.13
2023-01-02T09:18:56.407Z,99360.75
2023-01-02T09:22:18.968Z,99357.15
2023-01-02T09:25:36.660Z,99353.41
2023-01-02T09:28:56.199Z,99348.71
2023-01-02T09:32:12.854Z,99336.11
2023-01-02T09:35:42.038Z,99340.02
2023-01-02T09:39:03.930Z,99328.38
2023-01-02T09:42:23.850Z,99320.90
2023-01-02T09:45:46.812Z,99323.56
2023-01-02T09:49:03.366Z,99330.77
2023-01-02T09:52:25.364Z,99324.53
2023-01-02T09:55:48.845Z,99319.22
2023-01-02T09:59:11.295Z,99323.51
2023-01-02T10:02:38.839Z,99314.88
2023-01-02T10:06:17.596Z,99321.80
2023-01-02T10:09:39.571Z,99313.99
2023-01-02T10:13:02.695Z,99309.74
2023-01-02T10:16:26.272Z,99307.02
2023-01-02T10:19:51.896Z,99296.37
2023-01-02T10:23:12.674Z,99298.48
2023-01-02T10:26:33.749Z,99297.22
2023-01-02T10:29:56.834Z,99286.44
2023-01-02T10:33:19.496Z,99283.86
2023-01-02T10:36:39.123Z,99292.48
2023-01-02T10:39:58.520Z,99288.22
2023-01-02T10:43:15.599Z,99273.26
2023-01-02T10:46:35.628Z,99269.61
2023-01-02T10:49:53.252Z,99266.55
2023-01-02T10:53:27.052Z,99261.48
2023-01-02T10:56:46.156Z,99252.02
2023-01-02T11:00:13.872Z,99249.82
2023-01-02T11:03:33.683Z,99235.17
2023-01-02T11:10:41.723Z,99241.41
2023-01-02T11:14:00.475Z,99239.41
2023-01-02T11:17:20.910Z,99229.67
2023-01-02T11:20:44.047Z,99223.88
2023-01-02T11:24:05.279Z,99221.94
2023-01-02T11:27:22.413Z,99208.70
2023-01-02T11:30:47.854Z,99218.00
2023-01-02T11:34:14.679Z,99204.95
2023-01-02T11:37:34.206Z,99205.59
2023-01-02T11:41:04.473Z,99204.63
2023-01-02T11:44:27.146Z,99200.80
2023-01-02T11:47:48.650Z,99192.19
2023-01-02T11:51:05.308Z,99184.42
2023-01-02T11:54:28.185Z,99182.77
2023-01-02T11:57:51.497Z,99182.10
2023-01-02T12:01:13.908Z,99178.11
2023-01-02T12:04:32.242Z,99179.59
2023-01-02T12:07:56.293Z,99169.00
2023-01-02T12:11:19.714Z,99170.48
2023-01-02T12:14:50.757Z,99172.95
2023-01-02T12:18:09.893Z,99171.47
2023-01-02T12:21:31.059Z,99167.02
2023-01-02T12:25:15.378Z,99169.00
2023-01-02T12:29:13.425Z,99163.20
2023-01-02T12:32:59.407Z,99157.09
2023-01-02T12:36:40.301Z,99162.88
2023-01-02T12:40:36.137Z,99151.13
2023-01-02T12:44:16.895Z,99157.76
2023-01-02T12:47:51.670Z,99158.43
2023-01-02T12:51:23.771Z,99156.27
2023-01-02T12:54:58.281Z,99151.15
2023-01-02T12:58:19.735Z,99151.15
2023-01-02T13:01:43.115Z,99153.63
2023-01-02T13:05:03.453Z,99154.78
2023-01-02T13:08:26.780Z,99148.50
2023-01-02T13:11:48.031Z,99155.45
2023-01-02T13:15:07.963Z,99150.98
2023-01-02T13:18:31.526Z,99159.91
2023-01-02T13:21:55.080Z,99162.56
2023-01-02T13:25:20.804Z,99164.89
2023-01-02T13:28:38.497Z,99173.16
2023-01-02T13:32:01.708Z,99179.47
2023-01-02T13:35:23.427Z,99172.83
2023-01-02T13:38:43.573Z,99175.82
2023-01-02T13:42:19.810Z,99173.17
2023-01-02T13:45:41.577Z,99167.55
2023-01-02T13:49:03.256Z,99175.64
2023-01-02T13:52:27.305Z,99174.01
2023-01-02T13:55:54.407Z,99169.88
2023-01-02T13:59:41.916Z,99168.35
2023-01-02T14:02:41.689Z,99166.05
2023-01-02T14:06:13.722Z,99165.89
2023-01-02T14:09:33.665Z,99161.08
2023-01-02T14:12:57.078Z,99170.18
2023-01-02T14:16:47.956Z,99171.34
2023-01-02T14:20:31.695Z,99165.38
2023-01-02T14:24:16.933Z,99179.77
2023-01-02T14:27:20.942Z,99176.78
2023-01-02T14:30:44.611Z,99176.45
2023-01-02T14:34:05.563Z,99177.74
2023-01-02T14:37:33.033Z,99181.03
2023-01-02T14:40:51.483Z,99181.20
2023-01-02T14:44:11.539Z,99184.80
2023-01-02T14:47:33.127Z,99178.47
2023-01-02T14:50:53.072Z,99180.56
2023-01-02T14:54:17.597Z,99179.83
2023-01-02T14:57:40.277Z,99179.41
2023-01-02T15:01:04.204Z,99178.66
2023-01-02T15:04:25.836Z,99183.75
2023-01-02T15:07:47.987Z,99177.76
2023-01-02T15:11:24.129Z,99185.29
2023-01-02T15:14:41.111Z,99184.36
2023-01-02T15:18:01.383Z,99183.11
2023-01-02T15:21:24.445Z,99193.42
2023-01-02T15:24:43.640Z,99190.95
2023-01-02T15:28:09.075Z,99199.91
2023-01-02T15:34:42.950Z,99201.05
2023-01-02T15:38:01.905Z,99208.44
2023-01-02T15:41:27.044Z,99206.39
2023-01-02T15:44:59.853Z,99206.55
2023-01-02T15:51:40.214Z,99199.67
2023-01-02T15:54:55.776Z,99210.38
2023-01-02T15:58:31.444Z,99205.27
2023-01-02T16:01:53.624Z,99203.98
2023-01-02T16:05:24.307Z,99211.50
2023-01-02T16:08:41.393Z,99214.59
2023-01-02T16:12:02.181Z,99217.19
2023-01-02T16:15:22.312Z,99212.06
2023-01-02T16:18:46.967Z,99217.02
2023-01-02T16:22:10.355Z,99220.12
2023-01-02T16:25:30.072Z,99221.97
2023-01-02T16:28:49.064Z,99209.03
2023-01-02T16:35:31.698Z,99201.48
2023-01-02T16:39:03.261Z,99192.60
2023-01-02T16:42:33.363Z,99196.05
2023-01-02T16:45:50.924Z,99208.11
2023-01-02T16:52:23.278Z,99216.13
2023-01-02T16:55:39.564Z,99215.86
2023-01-02T16:58:55.992Z,99216.05
2023-01-02T17:02:12.287Z,99211.80
2023-01-02T17:05:33.639Z,99217.66
2023-01-02T17:08:50.469Z,99201.88
2023-01-02T17:12:07.301Z,99202.98
2023-01-02T17:15:26.939Z,99198.94
2023-01-02T17:18:41.067Z,99201.02
2023-01-02T17:21:57.650Z,99209.61
2023-01-02T17:25:25.819Z,99210.16
2023-01-02T17:28:48.034Z,99216.70
2023-01-02T17:32:05.596Z,99215.73
2023-01-02T17:35:24.520Z,99218.50
2023-01-02T17:38:41.740Z,99211.27
2023-01-02T17:41:58.719Z,99214.01
2023-01-02T17:45:18.214Z,99208.86
2023-01-02T17:48:35.815Z,99207.47
2023-01-02T17:51:53.089Z,99212.59
2023-01-02T17:55:10.082Z,99201.63
2023-01-02T17:58:28.954Z,99199.69
2023-01-02T18:07:12.061Z,99198.86
2023-01-02T18:10:32.896Z,99187.03
2023-01-02T18:13:52.403Z,99198.34
2023-01-02T18:20:28.423Z,99195.55
2023-01-02T18:23:45.065Z,99202.50
2023-01-02T18:27:05.701Z,99201.11
2023-01-02T18:30:46.950Z,99197.66
2023-01-02T18:34:10.323Z,99195.46
2023-01-02T18:37:30.603Z,99198.42
2023-01-02T18:40:47.648Z,99197.44
2023-01-02T18:44:10.715Z,99205.36
2023-01-02T18:47:38.020Z,99218.08
2023-01-02T18:51:01.976Z,99211.02
2023-01-02T18:54:27.785Z,99205.58
2023-01-02T18:57:48.265Z,99213.17
2023-01-02T19:01:04.523Z,99220.66
2023-01-02T19:04:41.342Z,99217.04
2023-01-02T19:07:58.625Z,99224.42
2023-01-02T19:11:37.959Z,99232.34
2023-01-02T19:14:52.739Z,99235.52
2023-01-02T19:18:24.085Z,99232.05
2023-01-02T19:21:47.423Z,99225.93
2023-01-02T19:25:14.859Z,99237.93
2023-01-02T19:28:35.468Z,99241.98
2023-01-02T19:32:26.610Z,99238.87
2023-01-02T19:36:09.055Z,99229.16
2023-01-02T19:39:58.744Z,99233.59
2023-01-02T19:50:18.776Z,99227.94
2023-01-02T19:53:57.489Z,99223.50
2023-01-02T20:11:08.464Z,99225.50
2023-01-02T20:18:32.827Z,99226.20
2023-01-02T20:22:07.435Z,99227.83
2023-01-02T20:25:26.879Z,99244.66
2023-01-02T20:28:43.819Z,99240.52
2023-01-02T20:32:00.782Z,99236.05
2023-01-02T20:35:18.055Z,99228.88
2023-01-02T20:38:38.188Z,99230.55
2023-01-02T20:41:54.648Z,99224.73
2023-01-02T20:45:12.083Z,99237.06
2023-01-02T20:48:28.741Z,99249.44
2023-01-02T20:51:45.570Z,99238.89
2023-01-02T20:55:13.338Z,99254.02
2023-01-02T20:58:35.638Z,99254.98
2023-01-02T21:02:05.206Z,99263.44
2023-01-02T21:05:22.545Z,99267.89
2023-01-02T21:08:39.810Z,99262.89
2023-01-02T21:12:07.547Z,99262.89
2023-01-02T21:15:40.641Z,99255.29
2023-01-02T21:19:22.297Z,99265.45
2023-01-02T21:22:45.151Z,99260.99
2023-01-02T21:26:01.933Z,99270.02
2023-01-02T21:29:19.245Z,99278.36
2023-01-02T21:32:41.104Z,99290.88
2023-01-02T21:36:12.032Z,99293.78
2023-01-02T21:39:28.668Z,99302.66
2023-01-02T21:43:00.798Z,99295.87
2023-01-02T21:46:15.765Z,99305.19
2023-01-02T21:49:34.387Z,99306.43
2023-01-02T21:52:51.484Z,99312.40
2023-01-02T21:56:08.853Z,99323.09
2023-01-02T21:59:28.567Z,99317.97
2023-01-02T22:02:58.845Z,99329.63
2023-01-02T22:06:16.236Z,99333.90
2023-01-02T22:09:33.490Z,99330.14
2023-01-02T22:12:53.140Z,99324.76
2023-01-02T22:16:09.630Z,99331.27
2023-01-02T22:19:27.215Z,99334.05
2023-01-02T22:22:43.612Z,99346.97
2023-01-02T22:26:00.369Z,99346.56
2023-01-02T22:29:18.128Z,99343.78
2023-01-02T22:32:36.803Z,99344.89
2023-01-02T22:35:53.660Z,99341.55
2023-01-02T22:39:28.773Z,99338.66
2023-01-02T22:43:02.879Z,99332.98
2023-01-02T22:46:22.632Z,99326.45
2023-01-02T22:49:41.893Z,99322.01
2023-01-02T22:52:58.979Z,99330.34
2023-01-02T22:56:23.890Z,99337.70
2023-01-02T22:59:40.127Z,99342.27
2023-01-02T23:02:57.892Z,99350.02
2023-01-02T23:06:20.063Z,99353.77
2023-01-02T23:09:32.797Z,99354.17
2023-01-02T23:12:49.320Z,99353.77
2023-01-02T23:16:19.871Z,99362.22
2023-01-02T23:19:36.878Z,99367.34
2023-01-02T23:22:53.350Z,99365.16
2023-01-02T23:26:10.639Z,99363.05
2023-01-02T23:29:28.935Z,99363.89
2023-01-02T23:32:46.001Z,99371.39
2023-01-02T23:36:02.496Z,99370.54
2023-01-02T23:39:21.282Z,99374.02
2023-01-02T23:42:37.477Z,99381.38
2023-01-02T23:45:53.876Z,99379.55
2023-01-02T23:49:11.586Z,99389.39
2023-01-02T23:52:28.041Z,99393.58
2023-01-02T23:55:47.329Z,99393.84
2023-01-02T23:59:06.945Z,99389.83
